createdAt,value
2018-09-26T00:01:56.991Z,1.98
2018-09-26T00:04:26.779Z,2.10
2018-09-26T00:06:55.591Z,2.30
2018-09-26T00:09:23.832Z,2.50
2018-09-26T00:11:52.143Z,1.60
2018-09-26T00:14:20.312Z,1.60
2018-09-26T00:16:48.578Z,2.20
2018-09-26T00:19:16.696Z,1.90
2018-09-26T00:21:44.930Z,1.80
2018-09-26T00:24:13.124Z,1.60
2018-09-26T00:26:41.292Z,1.47
2018-09-26T00:29:09.471Z,2.35
2018-09-26T00:31:37.640Z,1.55
2018-09-26T00:34:05.770Z,2.10
2018-09-26T00:36:33.946Z,2.05
2018-09-26T00:39:02.301Z,1.77
2018-09-26T00:41:30.509Z,1.70
2018-09-26T00:43:58.777Z,1.70
2018-09-26T00:46:27.120Z,2.00
2018-09-26T00:48:55.312Z,1.55
2018-09-26T00:51:23.500Z,1.95
2018-09-26T00:53:51.759Z,1.72
2018-09-26T00:56:19.947Z,2.17
2018-09-26T00:58:48.049Z,1.67
2018-09-26T01:01:16.177Z,1.47
2018-09-26T01:03:44.340Z,2.15
2018-09-26T01:06:12.604Z,1.82
2018-09-26T01:08:40.772Z,2.00
2018-09-26T01:11:09.033Z,1.65
2018-09-26T01:13:38.119Z,1.57
2018-09-26T01:16:06.564Z,1.60
2018-09-26T01:18:34.782Z,2.02
2018-09-26T01:21:02.927Z,1.55
2018-09-26T01:23:31.060Z,2.12
2018-09-26T01:25:59.340Z,1.80
2018-09-26T01:28:27.555Z,2.00
2018-09-26T01:30:55.712Z,1.80
2018-09-26T01:33:23.883Z,1.50
2018-09-26T01:35:52.057Z,2.20
2018-09-26T01:38:20.226Z,1.95
2018-09-26T01:40:48.442Z,2.00
2018-09-26T01:43:16.590Z,2.30
2018-09-26T01:45:45.445Z,1.90
2018-09-26T01:48:13.600Z,1.75
2018-09-26T01:50:41.776Z,2.02
2018-09-26T01:53:10.055Z,1.85
2018-09-26T01:55:38.264Z,2.33
2018-09-26T01:58:06.475Z,2.40
2018-09-26T02:00:34.677Z,2.17
2018-09-26T02:03:02.931Z,2.05
2018-09-26T02:05:31.127Z,2.33
2018-09-26T02:07:59.407Z,1.80
2018-09-26T02:10:27.560Z,1.87
2018-09-26T02:12:55.714Z,2.42
2018-09-26T02:15:24.544Z,2.42
2018-09-26T02:17:52.789Z,1.67
2018-09-26T02:20:20.999Z,2.00
2018-09-26T02:22:49.231Z,2.20
2018-09-26T02:25:17.447Z,2.10
2018-09-26T02:27:45.584Z,2.00
2018-09-26T02:30:13.761Z,2.20
2018-09-26T02:32:42.002Z,2.95
2018-09-26T02:35:10.308Z,1.85
2018-09-26T02:37:38.452Z,2.27
2018-09-26T02:40:06.673Z,2.47
2018-09-26T02:42:34.937Z,2.12
2018-09-26T02:45:03.172Z,2.55
2018-09-26T02:47:31.383Z,1.98
2018-09-26T02:49:59.579Z,1.65
2018-09-26T02:52:27.725Z,2.20
2018-09-26T02:54:55.924Z,2.27
2018-09-26T02:57:24.099Z,2.30
2018-09-26T02:59:52.327Z,2.05
2018-09-26T03:02:20.467Z,1.80
2018-09-26T03:04:48.662Z,2.08
2018-09-26T03:07:16.880Z,1.80
2018-09-26T03:09:45.064Z,1.77
2018-09-26T03:12:13.393Z,2.50
2018-09-26T03:14:41.679Z,1.98
2018-09-26T03:17:09.882Z,2.98
2018-09-26T03:19:38.088Z,3.20
2018-09-26T03:22:06.279Z,2.15
2018-09-26T03:24:34.479Z,2.10
2018-09-26T03:27:02.688Z,2.10
2018-09-26T03:29:31.479Z,2.90
2018-09-26T03:31:59.712Z,2.10
2018-09-26T03:34:27.931Z,1.82
2018-09-26T03:36:56.232Z,2.05
2018-09-26T03:39:24.370Z,2.33
2018-09-26T03:41:52.542Z,2.10
2018-09-26T03:44:20.757Z,2.45
2018-09-26T03:46:49.089Z,2.20
2018-09-26T03:49:17.277Z,2.72
2018-09-26T03:51:45.516Z,2.47
2018-09-26T03:54:13.641Z,2.45
2018-09-26T03:56:41.834Z,2.30
2018-09-26T03:59:10.072Z,2.20
2018-09-26T04:01:38.287Z,1.87
2018-09-26T04:04:06.462Z,2.20
2018-09-26T04:06:34.668Z,1.90
2018-09-26T04:09:03.446Z,2.20
2018-09-26T04:11:31.596Z,2.02
2018-09-26T04:14:00.782Z,2.10
2018-09-26T04:16:28.971Z,2.27
2018-09-26T04:18:57.327Z,2.75
2018-09-26T04:21:25.591Z,2.20
2018-09-26T04:23:53.763Z,2.05
2018-09-26T04:26:21.977Z,2.50
2018-09-26T04:28:50.213Z,2.02
2018-09-26T04:31:18.608Z,2.10
2018-09-26T04:33:46.823Z,1.77
2018-09-26T04:36:14.940Z,1.60
2018-09-26T04:38:43.241Z,1.65
2018-09-26T04:41:11.296Z,2.10
2018-09-26T04:43:39.493Z,2.17
2018-09-26T04:46:07.800Z,2.40
2018-09-26T04:48:36.022Z,2.20
2018-09-26T04:53:45.823Z,2.45
2018-09-26T04:56:14.031Z,2.35
2018-09-26T04:58:42.285Z,2.58
2018-09-26T05:01:10.488Z,2.30
2018-09-26T05:03:38.661Z,3.42
2018-09-26T05:06:06.880Z,2.42
2018-09-26T05:08:35.211Z,2.52
2018-09-26T05:11:04.008Z,2.40
2018-09-26T05:13:32.131Z,2.25
2018-09-26T05:16:00.329Z,2.42
2018-09-26T05:18:28.435Z,1.90
2018-09-26T05:20:56.629Z,2.20
2018-09-26T05:23:24.801Z,2.15
2018-09-26T05:25:53.002Z,2.15
2018-09-26T05:28:21.195Z,2.55
2018-09-26T05:30:49.427Z,2.20
2018-09-26T05:33:17.656Z,2.50
2018-09-26T05:35:45.840Z,2.60
2018-09-26T05:38:14.092Z,2.00
2018-09-26T05:40:42.300Z,2.87
2018-09-26T05:43:10.496Z,2.72
2018-09-26T05:45:38.708Z,2.95
2018-09-26T05:48:06.932Z,3.20
2018-09-26T05:50:35.091Z,2.98
2018-09-26T05:53:03.237Z,2.90
2018-09-26T05:55:31.469Z,2.20
2018-09-26T05:57:59.644Z,2.60
2018-09-26T06:00:27.863Z,2.60
2018-09-26T06:02:55.999Z,2.55
2018-09-26T06:05:24.255Z,2.22
2018-09-26T06:07:52.528Z,2.98
2018-09-26T06:10:20.803Z,2.60
2018-09-26T06:12:49.097Z,2.10
2018-09-26T06:15:17.312Z,3.17
2018-09-26T06:17:45.503Z,2.40
2018-09-26T06:20:13.768Z,2.42
2018-09-26T06:22:48.706Z,3.10
2018-09-26T06:25:16.866Z,3.50
2018-09-26T06:27:45.097Z,2.85
2018-09-26T06:30:13.288Z,2.40
2018-09-26T06:32:41.536Z,2.75
2018-09-26T06:35:09.706Z,3.30
2018-09-26T06:37:37.878Z,3.00
2018-09-26T06:40:06.575Z,2.65
2018-09-26T06:42:34.769Z,2.72
2018-09-26T06:45:03.319Z,2.85
2018-09-26T06:47:31.578Z,2.80
2018-09-26T06:50:00.103Z,3.10
2018-09-26T06:52:29.150Z,2.40
2018-09-26T06:54:57.387Z,3.02
2018-09-26T06:57:25.613Z,3.02
2018-09-26T06:59:53.828Z,3.62
2018-09-26T07:02:22.289Z,3.30
2018-09-26T07:04:50.438Z,2.65
2018-09-26T07:07:18.689Z,3.98
2018-09-26T07:09:46.885Z,3.45
2018-09-26T07:12:15.157Z,3.05
2018-09-26T07:14:43.431Z,3.98
2018-09-26T07:17:11.590Z,4.22
2018-09-26T07:19:39.759Z,3.20
2018-09-26T07:22:07.881Z,3.40
2018-09-26T07:24:36.075Z,3.90
2018-09-26T07:27:04.260Z,4.62
2018-09-26T07:29:32.558Z,3.60
2018-09-26T07:32:01.542Z,3.98
2018-09-26T07:34:35.175Z,3.75
2018-09-26T07:37:04.575Z,4.55
2018-09-26T07:39:32.895Z,3.95
2018-09-26T07:42:01.099Z,3.95
2018-09-26T07:44:29.280Z,4.85
2018-09-26T07:46:57.457Z,4.78
2018-09-26T07:49:25.662Z,4.35
2018-09-26T07:51:53.889Z,4.65
2018-09-26T07:54:22.127Z,5.40
2018-09-26T07:56:50.333Z,4.90
2018-09-26T07:59:18.665Z,5.65
2018-09-26T08:01:46.812Z,5.28
2018-09-26T08:04:15.033Z,7.03
2018-09-26T08:06:43.188Z,4.95
2018-09-26T08:09:11.588Z,5.10
2018-09-26T08:11:39.745Z,5.03
2018-09-26T08:14:08.095Z,4.62
2018-09-26T08:16:36.620Z,4.47
2018-09-26T08:19:05.071Z,5.00
2018-09-26T08:21:33.298Z,5.08
2018-09-26T08:24:01.707Z,4.35
2018-09-26T08:26:29.890Z,3.75
2018-09-26T08:28:58.144Z,4.00
2018-09-26T08:31:26.334Z,3.70
2018-09-26T08:33:55.042Z,3.15
2018-09-26T08:36:23.243Z,3.55
2018-09-26T08:38:51.383Z,4.65
2018-09-26T08:41:19.517Z,3.47
2018-09-26T08:43:47.819Z,3.08
2018-09-26T08:46:16.022Z,3.42
2018-09-26T08:48:44.263Z,3.30
2018-09-26T08:51:12.416Z,3.10
2018-09-26T08:53:40.670Z,3.00
2018-09-26T08:56:08.873Z,2.83
2018-09-26T08:58:37.048Z,2.80
2018-09-26T09:01:09.798Z,3.25
2018-09-26T09:03:37.992Z,4.50
2018-09-26T09:06:06.308Z,2.58
2018-09-26T09:08:34.385Z,3.00
2018-09-26T09:11:02.629Z,1.90
2018-09-26T09:13:30.847Z,1.80
2018-09-26T09:15:59.176Z,1.75
2018-09-26T09:18:27.447Z,2.20
2018-09-26T09:20:55.689Z,2.22
2018-09-26T09:23:24.018Z,2.00
2018-09-26T09:25:52.265Z,1.87
2018-09-26T09:28:20.494Z,2.55
2018-09-26T09:30:48.837Z,1.90
2018-09-26T09:33:17.123Z,2.15
2018-09-26T09:35:45.366Z,2.12
2018-09-26T09:38:13.569Z,2.33
2018-09-26T09:40:41.798Z,2.58
2018-09-26T09:43:09.958Z,2.85
2018-09-26T09:45:38.128Z,2.10
2018-09-26T09:48:06.322Z,2.05
2018-09-26T09:50:34.463Z,2.10
2018-09-26T09:53:02.700Z,2.25
2018-09-26T09:55:30.922Z,2.22
2018-09-26T09:57:59.182Z,2.45
2018-09-26T10:00:33.113Z,1.85
2018-09-26T10:03:01.507Z,1.80
2018-09-26T10:05:29.607Z,1.95
2018-09-26T10:07:57.767Z,2.80
2018-09-26T10:10:26.435Z,2.75
2018-09-26T10:12:54.710Z,1.80
2018-09-26T10:15:22.862Z,1.98
2018-09-26T10:17:50.957Z,2.02
2018-09-26T10:20:19.187Z,2.22
2018-09-26T10:22:47.319Z,2.30
2018-09-26T10:25:15.579Z,1.50
2018-09-26T10:27:43.757Z,1.70
2018-09-26T10:30:11.936Z,2.25
2018-09-26T10:32:40.118Z,1.45
2018-09-26T10:35:08.236Z,1.65
2018-09-26T10:37:36.507Z,1.70
2018-09-26T10:40:04.872Z,2.10
2018-09-26T10:42:33.017Z,2.30
2018-09-26T10:45:01.100Z,1.60
2018-09-26T10:47:29.247Z,1.55
2018-09-26T10:49:57.454Z,1.87
2018-09-26T10:52:25.596Z,1.60
2018-09-26T10:54:53.747Z,1.32
2018-09-26T10:57:21.894Z,1.80
2018-09-26T10:59:50.134Z,1.40
2018-09-26T11:02:18.274Z,1.82
2018-09-26T11:04:46.451Z,1.62
2018-09-26T11:07:14.579Z,1.30
2018-09-26T11:09:42.703Z,1.50
2018-09-26T11:12:10.980Z,1.60
2018-09-26T11:14:39.119Z,2.00
2018-09-26T11:17:07.299Z,2.17
2018-09-26T11:19:35.421Z,1.50
2018-09-26T11:22:03.594Z,1.35
2018-09-26T11:24:31.808Z,1.40
2018-09-26T11:26:59.908Z,1.95
2018-09-26T11:29:28.060Z,1.60
2018-09-26T11:31:56.205Z,1.50
2018-09-26T11:34:24.350Z,1.57
2018-09-26T11:36:52.507Z,1.70
2018-09-26T11:39:20.634Z,1.50
2018-09-26T11:41:48.846Z,1.73
2018-09-26T11:44:17.146Z,1.40
2018-09-26T11:46:45.264Z,1.77
2018-09-26T11:49:13.469Z,1.80
2018-09-26T11:51:41.646Z,1.73
2018-09-26T11:54:09.726Z,1.80
2018-09-26T11:56:37.863Z,1.30
2018-09-26T11:59:06.444Z,2.00
2018-09-26T12:01:34.628Z,1.77
2018-09-26T12:04:02.879Z,1.57
2018-09-26T12:06:31.039Z,1.90
2018-09-26T12:08:59.136Z,1.60
2018-09-26T12:11:27.369Z,1.93
2018-09-26T12:13:55.497Z,1.60
2018-09-26T12:16:23.670Z,1.50
2018-09-26T12:18:51.772Z,2.03
2018-09-26T12:21:30.253Z,1.60
2018-09-26T12:23:48.012Z,1.30
2018-09-26T12:26:16.115Z,2.00
2018-09-26T12:28:44.256Z,1.60
2018-09-26T12:31:12.449Z,1.70
2018-09-26T12:33:40.697Z,1.40
2018-09-26T12:36:08.869Z,2.10
2018-09-26T12:38:37.064Z,5.23
2018-09-26T12:41:05.183Z,2.37
2018-09-26T12:43:33.456Z,2.20
2018-09-26T12:46:01.576Z,1.93
2018-09-26T12:48:29.850Z,2.03
2018-09-26T12:50:57.888Z,2.10
2018-09-26T12:53:26.138Z,1.70
2018-09-26T12:55:54.343Z,1.70
2018-09-26T12:58:22.529Z,1.70
2018-09-26T13:00:50.621Z,2.37
2018-09-26T13:03:18.758Z,2.00
2018-09-26T13:05:46.909Z,2.43
2018-09-26T13:08:15.080Z,2.20
2018-09-26T13:10:43.199Z,2.40
2018-09-26T13:13:11.361Z,2.57
2018-09-26T13:15:39.528Z,1.97
2018-09-26T13:18:07.737Z,1.97
2018-09-26T13:20:35.905Z,1.90
2018-09-26T13:23:04.167Z,2.00
2018-09-26T13:25:32.425Z,2.17
2018-09-26T13:28:00.580Z,2.40
2018-09-26T13:30:28.842Z,2.00
2018-09-26T13:32:57.007Z,1.50
2018-09-26T13:35:25.172Z,2.37
2018-09-26T13:37:53.348Z,2.20
2018-09-26T13:40:21.563Z,1.80
2018-09-26T13:42:49.814Z,2.17
2018-09-26T13:45:17.969Z,1.80
2018-09-26T13:47:46.160Z,1.70
2018-09-26T13:50:14.417Z,2.07
2018-09-26T13:52:42.600Z,1.80
2018-09-26T13:55:10.781Z,1.93
2018-09-26T13:57:38.975Z,1.73
2018-09-26T14:00:07.356Z,1.90
2018-09-26T14:02:35.574Z,2.30
2018-09-26T14:05:04.140Z,2.27
2018-09-26T14:07:32.279Z,2.10
2018-09-26T14:10:00.374Z,1.67
2018-09-26T14:12:28.614Z,1.90
2018-09-26T14:14:56.722Z,2.33
2018-09-26T14:17:24.918Z,2.70
2018-09-26T14:19:53.068Z,1.70
2018-09-26T14:22:21.368Z,2.03
2018-09-26T14:24:49.444Z,2.50
2018-09-26T14:27:17.569Z,2.30
2018-09-26T14:29:45.696Z,2.50
2018-09-26T14:32:13.909Z,2.10
2018-09-26T14:34:41.995Z,2.37
2018-09-26T14:37:10.175Z,2.27
2018-09-26T14:39:39.377Z,3.07
2018-09-26T14:42:07.568Z,3.90
2018-09-26T14:44:35.668Z,1.67
2018-09-26T14:47:03.898Z,3.00
2018-09-26T14:49:31.983Z,2.33
2018-09-26T14:52:00.110Z,2.30
2018-09-26T14:54:28.235Z,2.33
2018-09-26T14:56:56.482Z,2.90
2018-09-26T14:59:24.590Z,2.57
2018-09-26T15:01:52.862Z,2.63
2018-09-26T15:04:21.187Z,2.70
2018-09-26T15:06:49.260Z,2.77
2018-09-26T15:09:18.077Z,2.73
2018-09-26T15:11:46.304Z,3.00
2018-09-26T15:14:15.173Z,2.50
2018-09-26T15:16:44.106Z,2.10
2018-09-26T15:19:12.244Z,2.70
2018-09-26T15:21:40.434Z,2.57
2018-09-26T15:24:08.722Z,2.60
2018-09-26T15:26:36.844Z,3.50
2018-09-26T15:29:05.105Z,3.30
2018-09-26T15:31:33.255Z,3.03
2018-09-26T15:34:01.396Z,3.50
2018-09-26T15:36:30.127Z,3.77
2018-09-26T15:38:58.910Z,3.27
2018-09-26T15:41:27.152Z,3.30
2018-09-26T15:43:55.300Z,3.23
2018-09-26T15:46:23.441Z,3.70
2018-09-26T15:48:52.351Z,3.00
2018-09-26T15:51:20.529Z,4.00
2018-09-26T15:53:48.699Z,3.40
2018-09-26T15:56:17.897Z,3.77
2018-09-26T15:58:45.920Z,3.70
2018-09-26T16:01:14.139Z,4.13
2018-09-26T16:03:42.235Z,5.00
2018-09-26T16:06:11.078Z,4.40
2018-09-26T16:08:39.136Z,4.23
2018-09-26T16:11:07.408Z,4.17
2018-09-26T16:13:37.259Z,4.33
2018-09-26T16:16:05.452Z,3.70
2018-09-26T16:18:33.619Z,5.20
2018-09-26T16:21:01.947Z,3.90
2018-09-26T16:23:30.080Z,3.83
2018-09-26T16:25:58.333Z,4.00
2018-09-26T16:28:26.562Z,4.57
2018-09-26T16:30:54.643Z,3.70
2018-09-26T16:33:22.908Z,4.10
2018-09-26T16:35:51.971Z,3.87
2018-09-26T16:38:20.203Z,4.43
2018-09-26T16:40:48.281Z,4.80
2018-09-26T16:43:16.532Z,7.63
2018-09-26T16:45:44.667Z,3.53
2018-09-26T16:48:13.470Z,3.60
2018-09-26T16:50:41.707Z,4.60
2018-09-26T16:53:09.909Z,4.23
2018-09-26T16:55:38.081Z,3.97
2018-09-26T16:58:06.451Z,4.03
2018-09-26T17:00:34.728Z,4.03
2018-09-26T17:03:03.321Z,3.57
2018-09-26T17:05:31.509Z,4.70
2018-09-26T17:08:00.495Z,4.70
2018-09-26T17:10:28.786Z,3.60
2018-09-26T17:12:57.204Z,3.83
2018-09-26T17:15:25.453Z,3.23
2018-09-26T17:17:53.598Z,3.50
2018-09-26T17:20:21.916Z,3.80
2018-09-26T17:22:50.077Z,4.70
2018-09-26T17:25:18.317Z,3.80
2018-09-26T17:27:46.995Z,3.47
2018-09-26T17:30:15.813Z,4.40
2018-09-26T17:32:44.633Z,3.60
2018-09-26T17:35:12.958Z,2.90
2018-09-26T17:37:41.760Z,2.97
2018-09-26T17:40:10.802Z,3.10
2018-09-26T17:42:39.238Z,2.60
2018-09-26T17:45:08.456Z,3.90
2018-09-26T17:47:38.106Z,3.07
2018-09-26T17:50:06.754Z,3.02
2018-09-26T17:52:35.083Z,3.22
2018-09-26T17:55:04.738Z,4.00
2018-09-26T17:57:34.932Z,2.70
2018-09-26T18:00:04.398Z,3.70
2018-09-26T18:02:33.193Z,3.90
2018-09-26T18:05:01.449Z,3.90
2018-09-26T18:07:29.691Z,3.52
2018-09-26T18:09:58.498Z,3.45
2018-09-26T18:12:27.522Z,4.08
2018-09-26T18:14:55.883Z,3.67
2018-09-26T18:17:24.068Z,4.00
2018-09-26T18:19:53.237Z,3.55
2018-09-26T18:22:21.484Z,2.95
2018-09-26T18:24:50.350Z,3.87
2018-09-26T18:27:18.536Z,2.80
2018-09-26T18:29:46.860Z,3.25
2018-09-26T18:32:16.170Z,3.95
2018-09-26T18:34:44.411Z,2.77
2018-09-26T18:37:14.225Z,3.45
2018-09-26T18:39:43.944Z,3.75
2018-09-26T18:42:14.192Z,2.52
2018-09-26T18:44:44.029Z,3.17
2018-09-26T18:47:13.569Z,3.55
2018-09-26T18:49:43.949Z,3.02
2018-09-26T18:52:14.119Z,3.10
2018-09-26T18:54:43.429Z,3.02
2018-09-26T18:57:14.604Z,5.70
2018-09-26T18:59:49.308Z,3.40
2018-09-26T19:02:23.107Z,3.20
2018-09-26T19:04:52.099Z,3.70
2018-09-26T19:07:20.892Z,3.52
2018-09-26T19:09:51.009Z,3.47
2018-09-26T19:12:19.343Z,3.30
2018-09-26T19:14:49.073Z,3.40
2018-09-26T19:17:17.931Z,3.15
2018-09-26T19:19:50.402Z,2.98
2018-09-26T19:22:19.814Z,3.15
2018-09-26T19:24:49.625Z,3.12
2018-09-26T19:27:18.652Z,3.12
2018-09-26T19:29:46.867Z,3.00
2018-09-26T19:32:16.028Z,2.83
2018-09-26T19:34:45.989Z,3.10
2018-09-26T19:37:17.170Z,3.45
2018-09-26T19:39:47.641Z,2.52
2018-09-26T19:42:22.130Z,2.80
2018-09-26T19:44:51.241Z,3.17
2018-09-26T19:47:25.035Z,3.20
2018-09-26T19:49:57.070Z,3.70
2018-09-26T19:52:27.968Z,3.52
2018-09-26T19:57:46.357Z,4.22
2018-09-26T20:00:21.046Z,4.20
2018-09-26T20:02:54.210Z,3.45
2018-09-26T20:05:27.012Z,3.58
2018-09-26T20:07:56.347Z,3.20
2018-09-26T20:10:25.166Z,3.80
2018-09-26T20:12:57.107Z,3.22
2018-09-26T20:15:27.345Z,2.72
2018-09-26T20:18:01.559Z,2.83
2018-09-26T20:20:33.301Z,3.00
2018-09-26T20:23:02.278Z,3.25
2018-09-26T20:25:33.908Z,3.00
2018-09-26T20:28:05.179Z,3.20
2018-09-26T20:30:38.055Z,3.58
2018-09-26T20:33:07.029Z,3.15
2018-09-26T20:35:35.306Z,3.67
2018-09-26T20:38:05.442Z,3.10
2018-09-26T20:40:36.367Z,3.10
2018-09-26T20:43:06.313Z,2.25
2018-09-26T20:45:39.580Z,3.20
2018-09-26T20:48:10.152Z,2.90
2018-09-26T20:50:41.016Z,3.20
2018-09-26T20:53:09.233Z,3.33
2018-09-26T20:55:40.832Z,3.20
2018-09-26T20:58:09.142Z,3.00
2018-09-26T21:00:38.150Z,2.80
2018-09-26T21:03:06.936Z,3.40
2018-09-26T21:05:37.770Z,3.20
2018-09-26T21:08:08.406Z,2.80
2018-09-26T21:10:37.950Z,3.00
2018-09-26T21:13:08.148Z,2.62
2018-09-26T21:15:39.004Z,2.70
2018-09-26T21:18:09.857Z,3.58
2018-09-26T21:20:40.524Z,2.72
2018-09-26T21:23:12.187Z,3.50
2018-09-26T21:25:41.846Z,2.47
2018-09-26T21:28:10.027Z,3.00
2018-09-26T21:30:41.799Z,2.70
2018-09-26T21:33:11.286Z,3.65
2018-09-26T21:35:42.139Z,4.33
2018-09-26T21:38:10.309Z,3.95
2018-09-26T21:40:39.677Z,2.67
2018-09-26T21:43:10.786Z,3.00
2018-09-26T21:45:38.993Z,2.98
2018-09-26T21:48:08.482Z,3.37
2018-09-26T21:50:41.167Z,3.20
2018-09-26T21:53:10.486Z,3.85
2018-09-26T21:55:40.683Z,2.58
2018-09-26T21:58:09.480Z,2.60
2018-09-26T22:00:47.420Z,2.77
2018-09-26T22:03:17.494Z,3.50
2018-09-26T22:05:50.114Z,2.95
2018-09-26T22:08:19.363Z,3.50
2018-09-26T22:10:49.916Z,3.30
2018-09-26T22:13:22.280Z,3.60
2018-09-26T22:15:57.881Z,2.75
2018-09-26T22:18:28.501Z,3.25
2018-09-26T22:20:57.445Z,3.08
2018-09-26T22:23:27.100Z,3.10
2018-09-26T22:26:02.978Z,2.65
2018-09-26T22:28:33.550Z,3.62
2018-09-26T22:31:02.915Z,3.12
2018-09-26T22:33:32.251Z,2.30
2018-09-26T22:36:03.638Z,2.87
2018-09-26T22:38:37.616Z,2.62
2018-09-26T22:41:09.196Z,2.55
2018-09-26T22:43:39.197Z,3.30
2018-09-26T22:46:12.977Z,2.40
2018-09-26T22:48:45.783Z,2.92
2018-09-26T22:51:17.680Z,2.95
2018-09-26T22:53:46.649Z,4.15
2018-09-26T22:56:18.218Z,2.15
2018-09-26T22:58:51.534Z,3.17
2018-09-26T23:01:24.997Z,2.52
2018-09-26T23:03:55.432Z,2.80
2018-09-26T23:06:25.883Z,2.70
2018-09-26T23:08:57.901Z,2.58
2018-09-26T23:11:29.464Z,2.60
2018-09-26T23:14:01.246Z,2.35
2018-09-26T23:16:33.462Z,2.80
2018-09-26T23:19:04.264Z,3.35
2018-09-26T23:21:36.676Z,2.60
2018-09-26T23:24:09.270Z,3.40
2018-09-26T23:26:39.219Z,3.17
2018-09-26T23:29:11.805Z,3.25
2018-09-26T23:31:49.034Z,2.90
2018-09-26T23:34:22.160Z,2.62
2018-09-26T23:36:53.635Z,3.55
2018-09-26T23:39:30.315Z,2.50
2018-09-26T23:42:02.955Z,3.75
2018-09-26T23:44:33.230Z,2.40
2018-09-26T23:47:07.812Z,2.95
2018-09-26T23:49:36.865Z,3.33
2018-09-26T23:52:07.456Z,2.65
2018-09-26T23:54:40.149Z,2.50
2018-09-26T23:57:10.578Z,2.60
2018-09-26T23:59:39.528Z,3.00
